Time;durP1;ratioP1;P1;durP2;ratioP2;P2;SDS_P1;SDS_P2;PMS_P1;PMS_P2;Temp;Humidity;BMP_temperature;BMP_pressure;BME280_temperature;BME280_humidity;BME280_pressure;Samples;Min_cycle;Max_cycle;Signal;HPM_P1;HPM_P2
2021/05/14 01:40:23;;;;;;;4.78;3.95;;;;;;;12.93;67.35;100076.47;1649077;84;21204;-57
2021/05/14 01:43:28;;;;;;;5.87;3.72;;;;;;;12.95;67.19;100075.23;1652618;86;21665;-56
2021/05/14 01:46:34;;;;;;;7.80;3.77;;;;;;;12.96;66.88;100080.19;1655521;86;21251;-57
2021/05/14 01:49:40;;;;;;;6.80;3.80;;;;;;;12.94;66.61;100082.27;1621596;88;21355;-57
2021/05/14 01:52:45;;;;;;;6.65;3.45;;;;;;;12.90;66.55;100081.84;1654976;86;21248;-56
2021/05/14 01:55:51;;;;;;;5.30;3.90;;;;;;;12.90;66.69;100087.34;1654899;86;21223;-57
2021/05/14 01:58:57;;;;;;;6.20;3.52;;;;;;;12.91;66.74;100084.91;1654993;86;21244;-59
2021/05/14 02:02:03;;;;;;;4.85;3.40;;;;;;;12.92;66.74;100087.14;1655087;86;21258;-57
2021/05/14 02:05:10;;;;;;;4.00;3.40;;;;;;;12.96;66.66;100089.29;1655375;86;21223;-57
2021/05/14 02:08:15;;;;;;;6.60;3.47;;;;;;;12.99;66.45;100086.14;1621920;88;21366;-57
2021/05/14 02:11:20;;;;;;;5.92;3.52;;;;;;;13.06;66.41;100081.59;1654784;86;21239;-58
2021/05/14 02:14:25;;;;;;;7.70;3.95;;;;;;;13.12;65.99;100078.56;1654382;86;21271;-57
2021/05/14 02:17:30;;;;;;;6.00;3.75;;;;;;;13.15;65.78;100069.91;1655499;86;21270;-55
2021/05/14 02:20:36;;;;;;;6.80;3.65;;;;;;;13.19;65.88;100065.73;1622045;88;21251;-55
2021/05/14 02:23:42;;;;;;;8.35;3.70;;;;;;;13.22;65.90;100065.33;1652546;86;21413;-56
2021/05/14 02:26:47;;;;;;;5.25;3.87;;;;;;;13.23;65.84;100063.75;1621987;88;21378;-55
2021/05/14 02:29:53;;;;;;;6.28;3.50;;;;;;;13.25;65.64;100064.41;1653892;86;21698;-56
2021/05/14 02:32:59;;;;;;;8.50;3.62;;;;;;;13.27;65.64;100049.91;1621933;88;21401;-55
2021/05/14 02:36:03;;;;;;;8.25;3.95;;;;;;;13.32;65.46;100050.67;1651385;86;21309;-56
2021/05/14 02:39:08;;;;;;;5.75;3.72;;;;;;;13.28;65.35;100057.13;1620041;88;21803;-59
2021/05/14 02:42:14;;;;;;;9.75;4.47;;;;;;;13.29;65.36;100051.94;1648391;85;21263;-58
2021/05/14 02:45:21;;;;;;;8.45;4.03;;;;;;;13.31;65.40;100048.99;1653803;87;21200;-57
2021/05/14 02:48:26;;;;;;;14.00;4.40;;;;;;;13.31;65.43;100056.72;1647466;87;21205;-57
2021/05/14 02:51:32;;;;;;;5.97;4.12;;;;;;;13.33;65.68;100047.73;1654278;86;21204;-57
2021/05/14 02:54:37;;;;;;;6.65;4.25;;;;;;;13.37;65.82;100044.91;1647634;87;21252;-58
2021/05/14 02:57:43;;;;;;;7.75;4.50;;;;;;;13.41;65.87;100046.74;1654135;86;21291;-58
2021/05/14 03:00:48;;;;;;;12.82;4.00;;;;;;;13.45;65.86;100037.88;1647874;87;21260;-58
2021/05/14 03:03:54;;;;;;;5.25;3.98;;;;;;;13.49;65.92;100044.66;1653975;86;21228;-57
2021/05/14 03:07:01;;;;;;;8.18;4.15;;;;;;;13.48;65.61;100041.59;1647454;87;21187;-57
2021/05/14 03:10:06;;;;;;;7.17;4.80;;;;;;;13.50;65.88;100046.89;1647055;86;21513;-57
2021/05/14 03:13:11;;;;;;;7.90;4.53;;;;;;;13.54;66.22;100042.70;1652505;86;21298;-56
2021/05/14 03:16:17;;;;;;;9.40;5.12;;;;;;;13.57;66.32;100038.17;1628020;87;21252;-56
2021/05/14 03:19:24;;;;;;;10.90;4.75;;;;;;;13.63;66.36;100037.86;1616140;88;21278;-56
2021/05/14 03:22:29;;;;;;;7.92;5.20;;;;;;;13.70;66.52;100033.26;1625861;88;21260;-57
2021/05/14 03:25:34;;;;;;;11.20;4.40;;;;;;;13.75;66.38;100025.24;1628151;87;21359;-59
2021/05/14 03:28:42;;;;;;;10.30;5.08;;;;;;;13.82;66.57;100026.10;1634731;87;21280;-56
2021/05/14 03:31:47;;;;;;;6.72;4.85;;;;;;;13.88;66.60;100023.89;1627836;88;21381;-57
2021/05/14 03:34:53;;;;;;;10.43;5.75;;;;;;;13.94;66.54;100021.17;1634373;88;21271;-56
2021/05/14 03:37:58;;;;;;;9.73;5.53;;;;;;;14.00;66.68;100023.64;1642668;87;21272;-56
2021/05/14 03:41:16;;;;;;;16.40;5.80;;;;;;;14.08;66.79;100024.84;1628094;87;21386;-56
2021/05/14 03:44:13;;;;;;;10.72;5.65;;;;;;;14.16;67.03;100019.15;1628907;84;21258;-57
2021/05/14 03:47:18;;;;;;;12.10;6.45;;;;;;;14.24;66.97;100014.83;1638714;87;21304;-58
2021/05/14 03:50:31;;;;;;;8.23;5.45;;;;;;;14.33;67.29;100023.23;1627719;87;21397;-57
2021/05/14 03:53:32;;;;;;;10.90;5.65;;;;;;;14.37;67.17;100018.99;1627941;88;21796;-58
2021/05/14 03:56:38;;;;;;;9.95;5.85;;;;;;;14.44;67.33;100013.84;1625718;87;21398;-58
2021/05/14 03:59:46;;;;;;;15.05;6.35;;;;;;;14.52;67.55;100007.27;1627400;88;21377;-58
2021/05/14 04:02:52;;;;;;;16.80;7.47;;;;;;;14.60;67.68;100005.14;1627405;88;21390;-57
2021/05/14 04:05:58;;;;;;;12.80;6.67;;;;;;;14.68;67.64;99998.60;1628344;87;22004;-57
2021/05/14 04:09:05;;;;;;;13.55;7.33;;;;;;;14.77;67.53;99993.19;1627499;88;21386;-57
2021/05/14 04:15:35;;;;;;;10.10;7.03;;;;;;;14.88;67.70;99982.90;1626545;88;21366;-56
2021/05/14 04:18:41;;;;;;;16.90;7.47;;;;;;;14.97;67.82;99980.23;1638503;87;21341;-59
2021/05/14 04:21:47;;;;;;;13.88;7.92;;;;;;;15.06;67.80;99975.35;1628727;88;21457;-58
2021/05/14 04:24:55;;;;;;;14.00;7.87;;;;;;;15.18;67.75;99977.77;1625243;87;21263;-59
2021/05/14 04:28:01;;;;;;;17.40;8.53;;;;;;;15.28;67.54;99978.17;1622619;86;21424;-57
2021/05/14 04:31:07;;;;;;;12.98;8.80;;;;;;;15.36;67.46;99983.45;1621343;88;21273;-58
2021/05/14 04:34:12;;;;;;;13.13;8.10;;;;;;;15.46;67.45;99976.45;1622024;88;21357;-58
2021/05/14 04:37:19;;;;;;;11.00;8.03;;;;;;;15.57;67.40;99968.05;1621630;88;21765;-57
2021/05/14 04:40:25;;;;;;;19.85;8.70;;;;;;;15.69;67.57;99974.56;1626167;86;21224;-57
2021/05/14 04:43:30;;;;;;;12.80;7.22;;;;;;;15.81;67.68;99974.21;1632200;85;21393;-56
2021/05/14 04:46:35;;;;;;;15.88;7.55;;;;;;;15.93;67.60;99960.88;1594679;89;21388;-60
2021/05/14 04:49:42;;;;;;;13.28;7.85;;;;;;;16.09;67.59;99970.00;1626492;87;21323;-55
2021/05/14 04:52:47;;;;;;;15.60;7.37;;;;;;;16.23;67.65;99977.16;1623827;88;21372;-55
2021/05/14 04:55:53;;;;;;;15.83;7.60;;;;;;;16.36;67.79;99972.91;1623372;86;21335;-54
2021/05/14 04:58:58;;;;;;;12.15;7.33;;;;;;;16.50;67.59;99976.99;1623630;88;21420;-54
2021/05/14 05:02:04;;;;;;;15.23;8.10;;;;;;;16.62;67.44;99984.34;1590418;90;21419;-55
2021/05/14 05:05:12;;;;;;;15.10;8.10;;;;;;;16.74;67.30;99978.41;1598460;89;21294;-51
2021/05/14 05:08:21;;;;;;;11.03;7.12;;;;;;;16.88;67.38;99970.83;1582999;88;21344;-54
2021/05/14 05:11:33;;;;;;;13.72;7.45;;;;;;;16.97;67.57;99962.55;1623406;88;21799;-54
2021/05/14 05:14:50;;;;;;;17.10;7.92;;;;;;;17.02;67.48;99958.05;1578220;90;21256;-58
2021/05/14 05:17:59;;;;;;;16.37;8.00;;;;;;;17.14;67.57;99947.09;1624209;88;21301;-54
2021/05/14 05:21:12;;;;;;;11.03;6.10;;;;;;;17.26;67.72;99943.33;1650876;86;21216;-54
2021/05/14 05:24:17;;;;;;;16.02;8.55;;;;;;;17.36;67.83;99940.03;1619400;88;21259;-56
2021/05/14 05:27:28;;;;;;;15.32;7.78;;;;;;;17.42;67.86;99928.03;1599630;88;21799;-51
2021/05/14 05:30:37;;;;;;;12.88;6.67;;;;;;;17.53;67.95;99934.20;1589437;90;21237;-53
2021/05/14 05:33:49;;;;;;;15.15;6.60;;;;;;;17.64;68.09;99940.34;1596131;89;21228;-52
2021/05/14 05:36:56;;;;;;;8.38;6.10;;;;;;;17.76;68.16;99939.33;1588909;90;21246;-52
2021/05/14 05:40:01;;;;;;;8.30;6.05;;;;;;;17.90;68.25;99935.30;1605838;88;21224;-52
2021/05/14 05:43:06;;;;;;;17.12;6.53;;;;;;;18.00;68.23;99943.05;1625063;88;21260;-52
2021/05/14 05:46:13;;;;;;;12.55;6.47;;;;;;;18.16;68.10;99934.09;1616155;85;21231;-54
2021/05/14 05:49:21;;;;;;;9.43;6.10;;;;;;;18.38;67.73;99932.50;1633394;86;21285;-53
2021/05/14 05:52:25;;;;;;;12.88;6.42;;;;;;;18.62;67.16;99929.23;1619487;88;21240;-54
2021/05/14 05:55:33;;;;;;;9.40;6.45;;;;;;;18.80;66.86;99931.38;1630825;87;21605;-53
2021/05/14 05:58:38;;;;;;;14.03;6.42;;;;;;;18.98;66.79;99928.48;1635325;86;21716;-53
2021/05/14 06:01:50;;;;;;;15.23;5.60;;;;;;;19.14;66.34;99924.13;1623379;88;21215;-55
2021/05/14 06:04:57;;;;;;;13.32;6.25;;;;;;;19.30;66.30;99923.42;1624363;88;21817;-54
2021/05/14 06:08:03;;;;;;;11.93;5.85;;;;;;;19.49;66.22;99927.73;1624843;87;21236;-53
2021/05/14 06:11:09;;;;;;;11.08;5.80;;;;;;;19.63;65.67;99920.81;1624264;88;21259;-53
2021/05/14 06:14:17;;;;;;;10.98;6.08;;;;;;;19.75;65.37;99916.63;1635882;87;21818;-56
2021/05/14 06:17:23;;;;;;;13.75;6.45;;;;;;;19.84;65.00;99910.43;1635244;87;21321;-55
2021/05/14 06:20:33;;;;;;;10.75;5.90;;;;;;;19.89;64.07;99916.63;1624227;88;21224;-54
2021/05/14 06:23:38;;;;;;;10.95;6.25;;;;;;;19.86;63.99;99915.73;1624594;87;21295;-55
2021/05/14 06:26:45;;;;;;;11.33;6.22;;;;;;;19.80;64.04;99925.92;1624198;88;21867;-55
2021/05/14 06:29:54;;;;;;;12.07;6.62;;;;;;;19.81;64.18;99919.80;1624247;88;21231;-55
2021/05/14 06:33:03;;;;;;;10.90;5.55;;;;;;;19.87;63.77;99916.06;1624269;88;21244;-54
2021/05/14 06:36:11;;;;;;;9.25;6.00;;;;;;;19.91;63.73;99916.70;1624339;88;21816;-55
2021/05/14 06:39:16;;;;;;;12.68;6.25;;;;;;;19.98;64.19;99913.20;1623325;88;21200;-55
2021/05/14 06:42:25;;;;;;;11.43;5.83;;;;;;;20.08;63.92;99925.07;1624836;88;21754;-55
2021/05/14 06:45:30;;;;;;;11.10;6.10;;;;;;;20.16;63.71;99926.95;1624480;87;21255;-55
2021/05/14 06:48:36;;;;;;;12.68;5.45;;;;;;;20.22;63.81;99917.61;1602189;89;21302;-54
2021/05/14 06:51:49;;;;;;;10.53;5.75;;;;;;;20.33;64.09;99918.63;1602550;88;21252;-55
2021/05/14 06:54:53;;;;;;;11.65;5.97;;;;;;;20.41;63.89;99911.27;1602369;89;21326;-56
2021/05/14 06:58:01;;;;;;;9.38;5.42;;;;;;;20.48;63.58;99910.57;1615199;87;21243;-54
2021/05/14 07:01:11;;;;;;;8.78;6.00;;;;;;;20.59;63.17;99909.66;1624760;88;21235;-54
2021/05/14 07:04:15;;;;;;;11.45;5.70;;;;;;;20.66;62.88;99906.99;1629225;87;21317;-54
2021/05/14 07:07:22;;;;;;;8.73;5.65;;;;;;;20.77;62.62;99912.20;1640672;87;21293;-55
2021/05/14 07:10:27;;;;;;;13.88;9.05;;;;;;;20.86;62.07;99903.71;1618251;88;21236;-55
2021/05/14 07:13:34;;;;;;;15.48;6.03;;;;;;;20.99;62.33;99903.94;1644333;86;21271;-56
2021/05/14 07:16:42;;;;;;;10.45;5.17;;;;;;;21.08;61.99;99899.08;1625963;86;21264;-56
2021/05/14 07:19:48;;;;;;;12.00;5.90;;;;;;;21.17;62.22;99887.78;1628572;87;21267;-55
2021/05/14 07:22:53;;;;;;;9.10;5.00;;;;;;;21.30;62.40;99896.31;1627975;87;21255;-55
2021/05/14 07:26:02;;;;;;;9.70;5.10;;;;;;;21.38;61.77;99890.30;1628994;87;21798;-54
2021/05/14 07:29:08;;;;;;;8.65;5.17;;;;;;;21.46;62.43;99885.14;1643974;86;21602;-53
2021/05/14 07:32:14;;;;;;;12.98;4.65;;;;;;;21.55;61.90;99886.36;1609635;88;21232;-54
2021/05/14 07:35:18;;;;;;;8.30;5.37;;;;;;;21.63;61.41;99887.30;1629727;88;21239;-54
2021/05/14 07:38:26;;;;;;;12.23;5.50;;;;;;;21.69;60.89;99889.62;1636306;87;21214;-55
2021/05/14 07:41:32;;;;;;;13.22;4.78;;;;;;;21.75;60.72;99883.88;1629644;86;21235;-55
2021/05/14 07:44:37;;;;;;;12.30;5.78;;;;;;;21.79;60.27;99882.24;1639952;87;21238;-54
2021/05/14 07:47:43;;;;;;;14.38;5.03;;;;;;;21.83;60.46;99886.21;1627607;84;21789;-55
2021/05/14 07:50:49;;;;;;;9.75;5.53;;;;;;;21.88;60.55;99884.84;1624670;88;21835;-55
2021/05/14 07:53:54;;;;;;;13.90;5.80;;;;;;;21.95;60.25;99879.08;1625026;88;21235;-54
2021/05/14 07:56:58;;;;;;;9.93;5.92;;;;;;;22.02;59.97;99878.33;1623987;87;21266;-54
2021/05/14 08:00:04;;;;;;;9.65;5.45;;;;;;;22.10;59.46;99878.68;1624898;86;21290;-54
2021/05/14 08:03:09;;;;;;;13.08;5.47;;;;;;;22.13;59.38;99880.97;1623685;88;21235;-55
2021/05/14 08:06:17;;;;;;;13.25;4.72;;;;;;;22.21;59.58;99873.50;1626162;88;21796;-56
2021/05/14 08:09:24;;;;;;;11.20;4.47;;;;;;;22.31;57.61;99874.72;1625333;87;21614;-56
2021/05/14 08:12:29;;;;;;;10.53;5.28;;;;;;;22.36;56.65;99870.59;1588262;90;21803;-55
2021/05/14 08:15:38;;;;;;;12.93;4.85;;;;;;;22.42;56.91;99866.16;1597469;88;21234;-55
2021/05/14 08:18:43;;;;;;;8.00;4.25;;;;;;;22.48;57.25;99870.70;1625838;88;21307;-55
2021/05/14 08:21:51;;;;;;;9.38;4.60;;;;;;;22.54;57.07;99867.42;1637028;87;21225;-54
2021/05/14 08:24:58;;;;;;;14.15;4.85;;;;;;;22.61;57.64;99865.27;1626599;87;21212;-54
2021/05/14 08:28:03;;;;;;;9.20;4.08;;;;;;;22.72;57.80;99857.25;1625940;88;21488;-55
2021/05/14 08:31:09;;;;;;;9.85;4.53;;;;;;;22.83;56.97;99856.22;1625782;86;21255;-54
2021/05/14 08:34:16;;;;;;;11.90;4.33;;;;;;;22.93;56.67;99863.28;1590740;90;21247;-55
2021/05/14 08:37:24;;;;;;;11.73;3.80;;;;;;;23.03;56.79;99864.73;1601023;89;21258;-56
2021/05/14 08:40:29;;;;;;;10.15;4.05;;;;;;;23.09;55.67;99851.08;1603038;88;21294;-55
2021/05/14 08:43:36;;;;;;;11.55;4.10;;;;;;;23.16;55.47;99847.50;1638425;87;21300;-55
2021/05/14 08:46:43;;;;;;;8.85;4.15;;;;;;;23.25;56.12;99843.08;1602776;89;21365;-57
2021/05/14 08:49:48;;;;;;;8.60;3.80;;;;;;;23.33;55.68;99846.78;1603132;85;21256;-51
2021/05/14 08:52:53;;;;;;;11.15;3.85;;;;;;;23.39;54.71;99842.34;1633129;86;21255;-51
2021/05/14 08:55:59;;;;;;;9.20;3.60;;;;;;;23.46;54.78;99843.50;1626573;88;21220;-50
2021/05/14 08:59:04;;;;;;;18.07;4.25;;;;;;;23.58;54.70;99837.11;1627433;87;21289;-50
2021/05/14 09:02:09;;;;;;;9.70;3.77;;;;;;;23.72;54.49;99842.50;1627448;87;21228;-50
2021/05/14 09:05:33;;;;;;;9.38;3.67;;;;;;;23.78;54.65;99839.99;1633562;88;21252;-50
2021/05/14 09:08:41;;;;;;;9.05;3.33;;;;;;;23.87;53.92;99838.33;1627404;88;21255;-51
2021/05/14 09:11:49;;;;;;;12.37;3.75;;;;;;;23.95;52.25;99832.20;1627136;87;21271;-51
2021/05/14 09:14:56;;;;;;;10.65;3.72;;;;;;;24.03;51.95;99828.05;1626993;88;21799;-51
2021/05/14 09:18:20;;;;;;;11.60;3.47;;;;;;;24.09;51.77;99834.78;1627206;87;21871;-49
2021/05/14 09:21:26;;;;;;;9.25;3.55;;;;;;;24.17;50.24;99837.58;1595057;90;21226;-50
2021/05/14 09:24:35;;;;;;;21.05;4.17;;;;;;;24.32;50.65;99837.06;1627723;88;22209;-51
2021/05/14 09:27:42;;;;;;;10.05;3.65;;;;;;;24.51;50.67;99842.39;1634344;88;21784;-51
2021/05/14 09:30:51;;;;;;;6.37;2.87;;;;;;;24.70;49.83;99839.34;1628049;88;21243;-50
2021/05/14 09:34:01;;;;;;;11.70;3.67;;;;;;;24.75;48.87;99842.69;1622040;88;21250;-50
2021/05/14 09:37:27;;;;;;;27.13;15.10;;;;;;;24.84;47.96;99829.24;1626840;88;21239;-50
2021/05/14 09:40:33;;;;;;;;;;;;;;;25.01;48.06;99828.36;1637742;87;21229;-52
2021/05/14 09:43:38;;;;;;;9.95;3.85;;;;;;;25.15;48.18;99827.78;1637681;85;20553;-49
2021/05/14 09:46:57;;;;;;;14.68;4.80;;;;;;;25.24;47.87;99826.06;1599512;89;21759;-49
2021/05/14 09:50:04;;;;;;;9.80;4.22;;;;;;;25.25;48.20;99831.93;1625266;84;22034;-50
2021/05/14 09:53:18;;;;;;;11.35;4.53;;;;;;;25.26;47.82;99830.83;1629601;87;21251;-49
2021/05/14 09:56:30;;;;;;;6.58;3.83;;;;;;;25.32;48.71;99833.33;1628844;88;21267;-49
2021/05/14 09:59:35;;;;;;;13.13;3.80;;;;;;;25.47;47.70;99832.44;1602975;88;21222;-49
2021/05/14 10:02:42;;;;;;;7.03;3.45;;;;;;;25.60;45.62;99834.64;1601013;88;21289;-49
2021/05/14 10:05:49;;;;;;;15.95;3.62;;;;;;;25.67;45.07;99830.97;1598839;89;21219;-48
2021/05/14 10:09:05;;;;;;;9.00;3.30;;;;;;;25.76;44.09;99831.48;1601491;89;21754;-49
2021/05/14 10:12:04;;;;;;;11.97;4.17;;;;;;;25.83;43.74;99833.98;1607956;88;21219;-48
2021/05/14 10:15:11;;;;;;;8.93;3.37;;;;;;;25.88;43.17;99822.70;1599229;89;21888;-51
2021/05/14 10:18:27;;;;;;;7.10;3.90;;;;;;;25.89;43.49;99821.05;1628364;86;21259;-50
2021/05/14 10:21:33;;;;;;;5.92;3.20;;;;;;;25.91;44.76;99826.36;1600657;88;21231;-51
2021/05/14 10:25:00;;;;;;;6.62;3.83;;;;;;;25.97;44.67;99825.20;1623103;86;21212;-51
2021/05/14 10:28:14;;;;;;;11.65;4.33;;;;;;;26.00;42.82;99824.65;1602686;88;21235;-55
2021/05/14 10:31:22;;;;;;;7.60;3.55;;;;;;;25.97;43.36;99822.39;1629275;87;21777;-53
2021/05/14 10:34:32;;;;;;;7.65;3.00;;;;;;;26.02;44.00;99819.01;1610172;88;21768;-51
2021/05/14 10:37:57;;;;;;;13.48;4.03;;;;;;;26.11;42.97;99829.06;1595417;88;21306;-52
2021/05/14 10:41:04;;;;;;;9.80;3.58;;;;;;;26.26;42.10;99822.77;1616234;86;21380;-52
2021/05/14 10:44:14;;;;;;;7.72;3.75;;;;;;;26.50;43.18;99828.48;1589543;87;21269;-50
2021/05/14 10:47:40;;;;;;;6.05;3.40;;;;;;;26.61;42.39;99828.67;1602924;88;21229;-50
2021/05/14 10:50:49;;;;;;;8.63;3.45;;;;;;;26.68;41.78;99836.23;1598134;84;21377;-51
2021/05/14 10:53:55;;;;;;;8.45;3.50;;;;;;;26.77;42.10;99816.20;1629453;86;21243;-50
2021/05/14 10:57:03;;;;;;;18.32;4.75;;;;;;;26.90;41.11;99814.11;1636501;86;21273;-48
2021/05/14 11:00:33;;;;;;;14.10;4.42;;;;;;;27.10;39.66;99819.51;1619001;86;21227;-51
2021/05/14 11:03:42;;;;;;;7.12;2.40;;;;;;;27.25;40.56;99805.30;1628688;87;21884;-52
2021/05/14 11:06:54;;;;;;;13.28;2.55;;;;;;;27.42;36.81;99814.11;1627544;87;21244;-48
2021/05/14 11:10:35;;;;;;;7.15;2.65;;;;;;;27.63;37.58;99798.67;1628270;86;21271;-52
2021/05/14 11:13:53;;;;;;;8.13;2.30;;;;;;;27.83;37.32;99806.81;1628916;87;21780;-50
2021/05/14 11:17:03;;;;;;;7.30;2.50;;;;;;;28.02;37.93;99799.00;1622400;87;21211;-50
2021/05/14 11:20:12;;;;;;;4.72;2.22;;;;;;;28.25;36.72;99793.84;1629513;87;21276;-51
2021/05/14 11:23:46;;;;;;;6.60;2.62;;;;;;;28.43;36.54;99796.63;1627706;87;21246;-51
2021/05/14 11:26:59;;;;;;;6.10;2.15;;;;;;;28.60;36.41;99796.10;1628763;87;21263;-50
2021/05/14 11:30:08;;;;;;;5.87;2.15;;;;;;;28.69;34.95;99785.23;1628880;87;21236;-50
2021/05/14 11:33:13;;;;;;;6.33;2.20;;;;;;;28.80;35.12;99783.05;1628834;87;21251;-51
2021/05/14 11:36:19;;;;;;;3.67;2.20;;;;;;;28.87;34.94;99779.27;1615432;87;21230;-49
2021/05/14 11:39:33;;;;;;;4.22;1.82;;;;;;;28.87;35.71;99776.45;1627224;86;21299;-50
2021/05/14 11:42:39;;;;;;;6.33;2.40;;;;;;;28.92;34.44;99767.91;1602873;89;21320;-51
2021/05/14 11:45:49;;;;;;;7.40;2.47;;;;;;;28.92;35.06;99777.77;1603567;89;21267;-49
2021/05/14 11:48:55;;;;;;;8.55;2.30;;;;;;;28.65;35.39;99779.12;1626588;88;21303;-52
2021/05/14 11:52:02;;;;;;;6.92;2.45;;;;;;;28.40;35.86;99782.34;1625638;84;21226;-51
2021/05/14 11:55:16;;;;;;;4.40;1.77;;;;;;;28.28;36.28;99778.59;1623743;88;21243;-55
2021/05/14 11:58:21;;;;;;;5.90;2.20;;;;;;;28.33;35.69;99772.87;1622937;88;21601;-54
2021/05/14 12:01:28;;;;;;;5.67;1.70;;;;;;;28.37;35.75;99775.92;1634999;87;21237;-53
2021/05/14 12:04:35;;;;;;;5.65;2.00;;;;;;;28.35;35.59;99782.42;1622871;88;21638;-54
2021/05/14 12:07:44;;;;;;;6.25;2.52;;;;;;;28.43;35.15;99773.28;1623867;87;21253;-51
2021/05/14 12:11:05;;;;;;;5.60;2.05;;;;;;;28.57;34.47;99771.38;1592383;88;21244;-51
2021/05/14 12:14:08;;;;;;;9.85;2.60;;;;;;;28.74;34.12;99768.23;1611204;87;21232;-52
2021/05/14 12:17:14;;;;;;;8.20;1.85;;;;;;;28.90;33.47;99761.17;1598542;89;21246;-52
2021/05/14 12:20:26;;;;;;;2.65;1.50;;;;;;;28.91;32.92;99761.98;1624001;88;21251;-50
2021/05/14 12:23:33;;;;;;;2.55;1.40;;;;;;;28.86;32.08;99762.11;1625005;87;21286;-52
2021/05/14 12:26:38;;;;;;;4.03;1.70;;;;;;;28.77;32.46;99759.16;1624886;88;21243;-53
2021/05/14 12:29:44;;;;;;;12.25;1.95;;;;;;;28.61;32.37;99756.92;1624342;88;21745;-52
2021/05/14 12:32:53;;;;;;;4.60;1.57;;;;;;;28.57;32.77;99751.09;1624618;88;21247;-53
2021/05/14 12:36:15;;;;;;;5.30;1.67;;;;;;;28.53;32.48;99757.06;1624098;88;21280;-54
2021/05/14 12:39:24;;;;;;;8.15;2.20;;;;;;;28.44;32.84;99746.77;1635517;86;21587;-53
2021/05/14 12:42:38;;;;;;;5.33;2.20;;;;;;;28.45;31.82;99761.95;1623466;87;21302;-53
2021/05/14 12:45:45;;;;;;;5.28;1.60;;;;;;;28.48;31.69;99757.73;1624222;88;21735;-54
2021/05/14 12:48:53;;;;;;;5.33;2.02;;;;;;;28.56;32.89;99751.41;1635394;87;21260;-51
2021/05/14 12:52:13;;;;;;;5.60;1.75;;;;;;;28.57;31.49;99751.66;1634677;87;21225;-53
2021/05/14 12:55:24;;;;;;;5.92;1.90;;;;;;;28.53;31.75;99756.22;1598919;88;21286;-52
2021/05/14 12:58:29;;;;;;;6.55;1.80;;;;;;;28.48;32.26;99757.73;1565815;91;21643;-50
2021/05/14 13:01:34;;;;;;;7.28;1.95;;;;;;;28.45;32.76;99753.51;1599695;89;21226;-50
2021/05/14 13:04:43;;;;;;;6.72;1.85;;;;;;;28.45;31.91;99761.11;1577484;91;21794;-53
2021/05/14 13:08:00;;;;;;;10.00;2.45;;;;;;;28.34;31.61;99757.64;1584094;89;21273;-52
2021/05/14 13:11:11;;;;;;;12.20;2.45;;;;;;;28.27;32.11;99762.00;1577084;91;21758;-51
2021/05/14 13:14:15;;;;;;;8.18;2.70;;;;;;;28.27;32.48;99764.81;1599209;88;21825;-53
2021/05/14 13:17:20;;;;;;;5.87;2.25;;;;;;;28.29;31.96;99756.91;1576513;91;21329;-52
2021/05/14 13:20:26;;;;;;;9.10;3.37;;;;;;;28.27;32.11;99759.19;1599257;89;21269;-49
2021/05/14 13:23:33;;;;;;;7.92;2.45;;;;;;;28.17;32.09;99759.34;1552135;91;21805;-50
2021/05/14 13:26:40;;;;;;;7.03;2.77;;;;;;;28.08;31.75;99757.81;1598673;89;21203;-50
2021/05/14 13:29:47;;;;;;;5.22;1.70;;;;;;;28.08;31.27;99755.55;1603314;88;21216;-51
2021/05/14 13:32:59;;;;;;;20.17;2.40;;;;;;;28.07;32.00;99754.70;1596319;88;21847;-50
2021/05/14 13:36:03;;;;;;;6.95;2.22;;;;;;;27.95;31.89;99761.38;1598795;88;21271;-52
2021/05/14 13:39:08;;;;;;;5.55;2.50;;;;;;;27.79;32.15;99760.75;1597199;88;21760;-52
2021/05/14 13:42:14;;;;;;;7.78;2.50;;;;;;;27.69;31.82;99758.07;1598086;88;21218;-50
2021/05/14 13:45:19;;;;;;;5.28;2.02;;;;;;;27.62;32.37;99756.19;1579844;89;21865;-50
2021/05/14 13:48:25;;;;;;;7.60;1.70;;;;;;;27.54;32.81;99754.64;1596673;88;21755;-52
2021/05/14 13:51:31;;;;;;;5.72;2.20;;;;;;;27.59;32.79;99757.39;1592172;88;21225;-52
2021/05/14 13:54:36;;;;;;;5.50;1.65;;;;;;;27.61;32.07;99753.68;1602529;85;21235;-52
2021/05/14 13:57:43;;;;;;;7.03;2.20;;;;;;;27.63;32.01;99752.26;1625402;88;21783;-51
2021/05/14 14:00:49;;;;;;;6.45;1.65;;;;;;;27.53;32.30;99749.57;1626881;88;21280;-52
2021/05/14 14:03:55;;;;;;;2.80;1.62;;;;;;;27.41;32.50;99751.16;1627273;87;21383;-53
2021/05/14 14:07:01;;;;;;;4.53;1.98;;;;;;;27.26;32.53;99750.77;1626340;88;21212;-53
2021/05/14 14:10:07;;;;;;;3.02;1.62;;;;;;;27.07;33.02;99763.90;1624307;87;21574;-50
2021/05/14 14:13:14;;;;;;;6.95;1.72;;;;;;;26.90;32.84;99766.91;1623689;87;21733;-51
2021/05/14 14:16:20;;;;;;;4.03;1.77;;;;;;;26.78;33.23;99757.50;1594822;90;21234;-52
2021/05/14 14:19:25;;;;;;;8.55;2.00;;;;;;;26.78;33.80;99744.02;1626921;87;21723;-52
2021/05/14 14:22:32;;;;;;;4.50;1.77;;;;;;;27.05;33.70;99754.92;1586920;90;21835;-52
2021/05/14 14:25:37;;;;;;;10.23;2.30;;;;;;;27.19;33.51;99752.25;1619289;88;21227;-51
2021/05/14 14:28:42;;;;;;;5.35;2.00;;;;;;;27.09;32.97;99751.80;1619513;88;21840;-52
2021/05/14 14:31:47;;;;;;;5.20;1.98;;;;;;;26.98;33.65;99746.59;1619857;88;21362;-52
2021/05/14 14:34:56;;;;;;;4.62;2.10;;;;;;;26.77;32.98;99760.02;1619899;88;21366;-52
2021/05/14 14:38:04;;;;;;;4.62;2.00;;;;;;;26.71;33.21;99749.98;1623379;86;21767;-52
2021/05/14 14:41:09;;;;;;;4.92;2.33;;;;;;;26.65;33.84;99751.17;1649154;87;21719;-53
2021/05/14 14:44:14;;;;;;;5.35;1.87;;;;;;;26.57;34.03;99745.31;1649490;87;21287;-52
2021/05/14 14:47:20;;;;;;;10.32;1.92;;;;;;;26.54;34.08;99753.78;1649771;87;21306;-51
2021/05/14 14:50:25;;;;;;;6.08;1.85;;;;;;;26.46;34.43;99755.81;1649770;87;21409;-52
2021/05/14 14:53:31;;;;;;;5.95;2.10;;;;;;;26.38;34.14;99757.30;1648497;87;21291;-52
2021/05/14 14:56:38;;;;;;;6.42;2.05;;;;;;;26.27;34.36;99755.67;1610347;83;21824;-51
2021/05/14 14:59:45;;;;;;;8.75;2.37;;;;;;;26.18;34.95;99758.00;1624942;88;21255;-52
2021/05/14 15:02:51;;;;;;;6.47;2.00;;;;;;;26.12;35.08;99754.97;1624182;88;21247;-52
2021/05/14 15:05:58;;;;;;;9.35;2.22;;;;;;;25.99;35.22;99755.03;1624352;88;21216;-51
2021/05/14 15:09:03;;;;;;;8.50;2.35;;;;;;;26.10;35.49;99751.05;1593983;88;21417;-51
2021/05/14 15:12:10;;;;;;;7.50;2.22;;;;;;;26.61;34.90;99747.23;1594301;90;21776;-52
2021/05/14 15:15:15;;;;;;;6.75;2.17;;;;;;;27.18;33.97;99742.97;1593820;89;21441;-54
2021/05/14 15:18:21;;;;;;;5.15;2.10;;;;;;;27.67;32.85;99742.65;1593683;90;21254;-51
2021/05/14 15:21:27;;;;;;;7.37;1.57;;;;;;;27.99;32.34;99746.14;1594022;89;21219;-50
2021/05/14 15:24:32;;;;;;;5.67;1.80;;;;;;;28.37;31.78;99747.77;1593834;90;21362;-51
2021/05/14 15:27:38;;;;;;;5.25;1.92;;;;;;;29.11;30.60;99737.68;1593721;88;21724;-51
2021/05/14 15:30:43;;;;;;;9.45;2.95;;;;;;;29.54;29.83;99745.22;1593544;88;22021;-52
2021/05/14 15:33:50;;;;;;;5.55;1.85;;;;;;;29.19;30.01;99739.17;1591706;90;21289;-51
2021/05/14 15:36:57;;;;;;;3.22;1.50;;;;;;;29.05;30.82;99745.95;1593341;90;21244;-53
2021/05/14 15:40:02;;;;;;;15.43;8.55;;;;;;;29.08;30.87;99741.13;1593700;89;21259;-51
2021/05/14 15:43:09;;;;;;;8.35;2.37;;;;;;;28.83;31.07;99752.84;1593749;89;21752;-53
2021/05/14 15:46:14;;;;;;;7.67;2.33;;;;;;;28.27;31.55;99761.44;1593974;89;21220;-51
2021/05/14 15:49:19;;;;;;;9.53;2.02;;;;;;;27.79;31.99;99760.75;1593751;89;21228;-51
2021/05/14 15:52:25;;;;;;;6.78;1.60;;;;;;;27.36;32.93;99762.46;1591415;90;21988;-52
2021/05/14 15:55:32;;;;;;;6.37;2.52;;;;;;;27.04;33.64;99763.09;1593857;89;21238;-51
2021/05/14 15:58:39;;;;;;;6.75;1.85;;;;;;;26.94;33.67;99767.41;1607271;86;21259;-52
2021/05/14 16:01:44;;;;;;;9.63;2.20;;;;;;;27.16;33.52;99758.47;1590016;89;21237;-53
2021/05/14 16:04:50;;;;;;;3.83;1.70;;;;;;;27.26;33.40;99763.42;1613758;87;21786;-53
2021/05/14 16:07:56;;;;;;;6.55;1.80;;;;;;;27.10;33.32;99761.89;1645006;87;21312;-53
2021/05/14 16:11:02;;;;;;;4.53;1.60;;;;;;;26.64;34.18;99771.94;1615134;88;21362;-52
2021/05/14 16:14:08;;;;;;;6.87;2.00;;;;;;;26.13;34.90;99773.50;1645576;87;21254;-49
2021/05/14 16:17:16;;;;;;;5.87;1.87;;;;;;;25.81;35.57;99771.72;1617277;88;21237;-50
2021/05/14 16:20:34;;;;;;;4.87;1.60;;;;;;;26.03;35.37;99777.77;1645073;87;21599;-51